sensor_id;sensor_type;location;lat;lon;timestamp;temperature;humidity
23717;DHT22;22094;52.130;5.598;2022-09-11T00:01:17;13.10;99.90
23717;DHT22;22094;52.130;5.598;2022-09-11T00:03:44;13.10;99.90
23717;DHT22;22094;52.130;5.598;2022-09-11T00:06:15;13.40;99.90
23717;DHT22;22094;52.130;5.598;2022-09-11T00:08:41;13.00;99.90
23717;DHT22;22094;52.130;5.598;2022-09-11T00:11:09;13.10;99.90
23717;DHT22;22094;52.130;5.598;2022-09-11T00:13:37;13.20;99.90
23717;DHT22;22094;52.130;5.598;2022-09-11T00:16:04;13.20;99.90
23717;DHT22;22094;52.130;5.598;2022-09-11T00:18:31;13.10;99.90
23717;DHT22;22094;52.130;5.598;2022-09-11T00:21:00;13.00;99.90
23717;DHT22;22094;52.130;5.598;2022-09-11T00:23:27;12.90;99.90
23717;DHT22;22094;52.130;5.598;2022-09-11T00:25:52;12.90;99.90
23717;DHT22;22094;52.130;5.598;2022-09-11T00:28:23;12.80;99.90
23717;DHT22;22094;52.130;5.598;2022-09-11T00:31:06;12.80;99.90
23717;DHT22;22094;52.130;5.598;2022-09-11T00:33:34;12.80;99.90
23717;DHT22;22094;52.130;5.598;2022-09-11T00:36:03;12.60;99.90
23717;DHT22;22094;52.130;5.598;2022-09-11T00:38:34;12.60;99.90
23717;DHT22;22094;52.130;5.598;2022-09-11T00:41:01;12.60;99.90
23717;DHT22;22094;52.130;5.598;2022-09-11T00:43:47;12.50;99.90
23717;DHT22;22094;52.130;5.598;2022-09-11T00:46:14;12.50;99.90
23717;DHT22;22094;52.130;5.598;2022-09-11T00:48:40;12.40;99.90
23717;DHT22;22094;52.130;5.598;2022-09-11T00:51:06;12.60;99.90
23717;DHT22;22094;52.130;5.598;2022-09-11T00:53:34;12.40;99.90
23717;DHT22;22094;52.130;5.598;2022-09-11T00:56:03;12.40;99.90
23717;DHT22;22094;52.130;5.598;2022-09-11T00:58:33;12.30;99.90
23717;DHT22;22094;52.130;5.598;2022-09-11T01:01:02;12.30;99.90
23717;DHT22;22094;52.130;5.598;2022-09-11T01:03:28;12.30;99.90
23717;DHT22;22094;52.130;5.598;2022-09-11T01:05:56;12.20;99.90
23717;DHT22;22094;52.130;5.598;2022-09-11T01:08:23;12.20;99.90
23717;DHT22;22094;52.130;5.598;2022-09-11T01:16:52;12.20;99.90
23717;DHT22;22094;52.130;5.598;2022-09-11T01:19:51;12.30;99.90
23717;DHT22;22094;52.130;5.598;2022-09-11T01:27:29;12.50;99.90
23717;DHT22;22094;52.130;5.598;2022-09-11T01:32:43;12.40;99.90
23717;DHT22;22094;52.130;5.598;2022-09-11T01:35:15;12.40;99.90
23717;DHT22;22094;52.130;5.598;2022-09-11T01:40:27;12.30;99.90
23717;DHT22;22094;52.130;5.598;2022-09-11T01:43:01;12.30;99.90
23717;DHT22;22094;52.130;5.598;2022-09-11T01:45:31;12.30;99.90
23717;DHT22;22094;52.130;5.598;2022-09-11T01:47:59;12.20;99.90
23717;DHT22;22094;52.130;5.598;2022-09-11T01:50:25;12.40;99.90
23717;DHT22;22094;52.130;5.598;2022-09-11T01:52:55;12.50;99.90
23717;DHT22;22094;52.130;5.598;2022-09-11T01:55:50;12.60;99.90
23717;DHT22;22094;52.130;5.598;2022-09-11T01:58:34;12.60;99.90
23717;DHT22;22094;52.130;5.598;2022-09-11T02:01:15;12.50;99.90
23717;DHT22;22094;52.130;5.598;2022-09-11T02:03:47;12.50;99.90
23717;DHT22;22094;52.130;5.598;2022-09-11T02:06:21;12.70;99.90
23717;DHT22;22094;52.130;5.598;2022-09-11T02:08:52;12.70;99.90
23717;DHT22;22094;52.130;5.598;2022-09-11T02:11:18;12.70;99.90
23717;DHT22;22094;52.130;5.598;2022-09-11T02:14:36;12.60;99.90
23717;DHT22;22094;52.130;5.598;2022-09-11T02:19:13;12.30;99.90
23717;DHT22;22094;52.130;5.598;2022-09-11T02:21:40;12.20;99.90
23717;DHT22;22094;52.130;5.598;2022-09-11T02:24:06;12.10;99.90
23717;DHT22;22094;52.130;5.598;2022-09-11T02:26:36;12.20;99.90
23717;DHT22;22094;52.130;5.598;2022-09-11T02:29:03;12.20;99.90
23717;DHT22;22094;52.130;5.598;2022-09-11T02:31:30;12.20;99.90
23717;DHT22;22094;52.130;5.598;2022-09-11T02:33:56;12.20;99.90
23717;DHT22;22094;52.130;5.598;2022-09-11T02:53:09;11.90;99.90
23717;DHT22;22094;52.130;5.598;2022-09-11T02:55:57;11.80;99.90
23717;DHT22;22094;52.130;5.598;2022-09-11T02:58:35;11.70;99.90
23717;DHT22;22094;52.130;5.598;2022-09-11T03:01:02;11.60;99.90
23717;DHT22;22094;52.130;5.598;2022-09-11T03:03:36;11.60;99.90
23717;DHT22;22094;52.130;5.598;2022-09-11T03:06:02;11.70;99.90
23717;DHT22;22094;52.130;5.598;2022-09-11T03:08:28;11.80;99.90
23717;DHT22;22094;52.130;5.598;2022-09-11T03:10:55;11.90;99.90
23717;DHT22;22094;52.130;5.598;2022-09-11T03:13:21;11.80;99.90
23717;DHT22;22094;52.130;5.598;2022-09-11T03:15:46;11.70;99.90
23717;DHT22;22094;52.130;5.598;2022-09-11T03:18:12;11.60;99.90
23717;DHT22;22094;52.130;5.598;2022-09-11T03:20:46;11.60;99.90
23717;DHT22;22094;52.130;5.598;2022-09-11T03:23:12;11.50;99.90
23717;DHT22;22094;52.130;5.598;2022-09-11T03:25:39;11.50;99.90
23717;DHT22;22094;52.130;5.598;2022-09-11T03:28:04;11.50;99.90
23717;DHT22;22094;52.130;5.598;2022-09-11T03:30:31;11.40;99.90
23717;DHT22;22094;52.130;5.598;2022-09-11T03:32:57;11.40;99.90
23717;DHT22;22094;52.130;5.598;2022-09-11T03:35:23;11.40;99.90
23717;DHT22;22094;52.130;5.598;2022-09-11T03:37:49;11.40;99.90
23717;DHT22;22094;52.130;5.598;2022-09-11T03:40:15;11.40;99.90
23717;DHT22;22094;52.130;5.598;2022-09-11T03:42:40;11.30;99.90
23717;DHT22;22094;52.130;5.598;2022-09-11T03:45:06;11.30;99.90
23717;DHT22;22094;52.130;5.598;2022-09-11T03:47:32;11.30;99.90
23717;DHT22;22094;52.130;5.598;2022-09-11T03:49:58;11.20;99.90
23717;DHT22;22094;52.130;5.598;2022-09-11T03:52:23;11.30;99.90
23717;DHT22;22094;52.130;5.598;2022-09-11T03:54:49;11.20;99.90
23717;DHT22;22094;52.130;5.598;2022-09-11T03:57:14;11.10;99.90
23717;DHT22;22094;52.130;5.598;2022-09-11T03:59:40;11.10;99.90
23717;DHT22;22094;52.130;5.598;2022-09-11T04:02:05;11.10;99.90
23717;DHT22;22094;52.130;5.598;2022-09-11T04:04:31;11.00;99.90
23717;DHT22;22094;52.130;5.598;2022-09-11T04:06:57;11.10;99.90
23717;DHT22;22094;52.130;5.598;2022-09-11T04:09:23;11.00;99.90
23717;DHT22;22094;52.130;5.598;2022-09-11T04:11:49;10.90;99.90
23717;DHT22;22094;52.130;5.598;2022-09-11T04:14:14;11.00;99.90
23717;DHT22;22094;52.130;5.598;2022-09-11T04:16:40;10.90;99.90
23717;DHT22;22094;52.130;5.598;2022-09-11T04:19:06;11.00;99.90
23717;DHT22;22094;52.130;5.598;2022-09-11T04:21:31;11.00;99.90
23717;DHT22;22094;52.130;5.598;2022-09-11T04:23:59;11.00;99.90
23717;DHT22;22094;52.130;5.598;2022-09-11T04:26:26;10.90;99.90
23717;DHT22;22094;52.130;5.598;2022-09-11T04:28:52;10.80;99.90
23717;DHT22;22094;52.130;5.598;2022-09-11T04:31:19;10.80;99.90
23717;DHT22;22094;52.130;5.598;2022-09-11T04:33:44;10.70;99.90
23717;DHT22;22094;52.130;5.598;2022-09-11T04:36:13;10.60;99.90
23717;DHT22;22094;52.130;5.598;2022-09-11T04:38:39;10.70;99.90
23717;DHT22;22094;52.130;5.598;2022-09-11T04:41:06;10.70;99.90
23717;DHT22;22094;52.130;5.598;2022-09-11T04:43:33;10.70;99.90
23717;DHT22;22094;52.130;5.598;2022-09-11T04:46:10;10.70;99.90
23717;DHT22;22094;52.130;5.598;2022-09-11T04:48:35;10.70;99.90
23717;DHT22;22094;52.130;5.598;2022-09-11T04:51:07;10.60;99.90
23717;DHT22;22094;52.130;5.598;2022-09-11T04:53:33;10.60;99.90
23717;DHT22;22094;52.130;5.598;2022-09-11T04:56:01;10.60;99.90
23717;DHT22;22094;52.130;5.598;2022-09-11T04:58:28;10.40;99.90
23717;DHT22;22094;52.130;5.598;2022-09-11T05:00:54;10.50;99.90
23717;DHT22;22094;52.130;5.598;2022-09-11T05:03:19;10.80;99.90
23717;DHT22;22094;52.130;5.598;2022-09-11T05:05:45;10.60;99.90
23717;DHT22;22094;52.130;5.598;2022-09-11T05:08:10;10.60;99.90
23717;DHT22;22094;52.130;5.598;2022-09-11T05:10:37;10.60;99.90
23717;DHT22;22094;52.130;5.598;2022-09-11T05:13:03;10.60;99.90
23717;DHT22;22094;52.130;5.598;2022-09-11T05:15:29;10.60;99.90
23717;DHT22;22094;52.130;5.598;2022-09-11T05:17:56;10.60;99.90
23717;DHT22;22094;52.130;5.598;2022-09-11T05:20:22;10.60;99.90
23717;DHT22;22094;52.130;5.598;2022-09-11T05:22:49;10.60;99.90
23717;DHT22;22094;52.130;5.598;2022-09-11T05:25:15;10.60;99.90
23717;DHT22;22094;52.130;5.598;2022-09-11T05:27:41;10.60;99.90
23717;DHT22;22094;52.130;5.598;2022-09-11T05:30:07;10.60;99.90
23717;DHT22;22094;52.130;5.598;2022-09-11T05:32:33;10.80;99.90
23717;DHT22;22094;52.130;5.598;2022-09-11T05:34:58;10.60;99.90
23717;DHT22;22094;52.130;5.598;2022-09-11T05:37:24;10.60;99.90
23717;DHT22;22094;52.130;5.598;2022-09-11T05:39:49;10.60;99.90
23717;DHT22;22094;52.130;5.598;2022-09-11T05:42:16;11.10;99.90
23717;DHT22;22094;52.130;5.598;2022-09-11T05:44:42;10.60;99.90
23717;DHT22;22094;52.130;5.598;2022-09-11T05:47:08;10.70;99.90
23717;DHT22;22094;52.130;5.598;2022-09-11T05:49:34;12.20;99.90
23717;DHT22;22094;52.130;5.598;2022-09-11T05:51:59;10.80;99.90
23717;DHT22;22094;52.130;5.598;2022-09-11T05:54:25;10.90;99.90
23717;DHT22;22094;52.130;5.598;2022-09-11T05:56:51;11.00;99.90
23717;DHT22;22094;52.130;5.598;2022-09-11T05:59:17;10.90;99.90
23717;DHT22;22094;52.130;5.598;2022-09-11T06:01:44;10.90;99.90
23717;DHT22;22094;52.130;5.598;2022-09-11T06:04:11;10.90;99.90
23717;DHT22;22094;52.130;5.598;2022-09-11T06:06:38;11.20;99.90
23717;DHT22;22094;52.130;5.598;2022-09-11T06:09:04;14.00;99.90
23717;DHT22;22094;52.130;5.598;2022-09-11T06:11:31;13.20;99.90
23717;DHT22;22094;52.130;5.598;2022-09-11T06:16:23;11.60;99.90
23717;DHT22;22094;52.130;5.598;2022-09-11T06:18:50;11.90;99.90
23717;DHT22;22094;52.130;5.598;2022-09-11T06:21:21;14.50;99.90
23717;DHT22;22094;52.130;5.598;2022-09-11T06:23:48;12.00;99.90
23717;DHT22;22094;52.130;5.598;2022-09-11T06:26:16;12.00;99.90
23717;DHT22;22094;52.130;5.598;2022-09-11T06:28:42;12.10;99.90
23717;DHT22;22094;52.130;5.598;2022-09-11T06:31:12;15.40;99.90
23717;DHT22;22094;52.130;5.598;2022-09-11T06:33:40;9.50;99.90
23717;DHT22;22094;52.130;5.598;2022-09-11T06:36:10;12.30;99.90
23717;DHT22;22094;52.130;5.598;2022-09-11T06:38:36;12.40;99.90
23717;DHT22;22094;52.130;5.598;2022-09-11T06:41:07;12.20;99.90
23717;DHT22;22094;52.130;5.598;2022-09-11T06:43:37;15.30;99.90
23717;DHT22;22094;52.130;5.598;2022-09-11T06:46:11;13.70;99.90
23717;DHT22;22094;52.130;5.598;2022-09-11T06:48:40;12.60;99.90
23717;DHT22;22094;52.130;5.598;2022-09-11T06:51:09;11.40;99.90
23717;DHT22;22094;52.130;5.598;2022-09-11T06:53:36;12.10;99.90
23717;DHT22;22094;52.130;5.598;2022-09-11T06:56:03;11.90;99.90
23717;DHT22;22094;52.130;5.598;2022-09-11T06:58:29;12.60;99.90
23717;DHT22;22094;52.130;5.598;2022-09-11T07:01:05;12.70;99.90
23717;DHT22;22094;52.130;5.598;2022-09-11T07:03:31;12.60;99.90
23717;DHT22;22094;52.130;5.598;2022-09-11T07:05:57;15.70;99.90
23717;DHT22;22094;52.130;5.598;2022-09-11T07:08:23;14.10;99.90
23717;DHT22;22094;52.130;5.598;2022-09-11T07:10:48;14.40;99.90
23717;DHT22;22094;52.130;5.598;2022-09-11T07:13:14;13.10;99.90
23717;DHT22;22094;52.130;5.598;2022-09-11T07:15:39;15.80;99.90
23717;DHT22;22094;52.130;5.598;2022-09-11T07:18:05;13.10;99.90
23717;DHT22;22094;52.130;5.598;2022-09-11T07:20:31;13.40;99.90
23717;DHT22;22094;52.130;5.598;2022-09-11T07:22:56;12.70;99.90
23717;DHT22;22094;52.130;5.598;2022-09-11T07:27:49;15.80;99.90
23717;DHT22;22094;52.130;5.598;2022-09-11T07:30:16;15.30;99.90
23717;DHT22;22094;52.130;5.598;2022-09-11T07:32:42;14.50;99.90
23717;DHT22;22094;52.130;5.598;2022-09-11T07:35:08;14.40;99.90
23717;DHT22;22094;52.130;5.598;2022-09-11T07:37:34;14.50;99.90
23717;DHT22;22094;52.130;5.598;2022-09-11T07:42:26;14.70;99.90
23717;DHT22;22094;52.130;5.598;2022-09-11T08:09:14;16.70;99.90
23717;DHT22;22094;52.130;5.598;2022-09-11T08:11:45;16.30;99.90
23717;DHT22;22094;52.130;5.598;2022-09-11T08:19:06;17.30;99.90
23717;DHT22;22094;52.130;5.598;2022-09-11T08:31:24;17.60;99.90
23717;DHT22;22094;52.130;5.598;2022-09-11T08:38:45;18.90;99.90
23717;DHT22;22094;52.130;5.598;2022-09-11T08:43:51;18.40;99.90
23717;DHT22;22094;52.130;5.598;2022-09-11T08:53:43;19.10;99.90
23717;DHT22;22094;52.130;5.598;2022-09-11T08:59:00;19.60;99.90
23717;DHT22;22094;52.130;5.598;2022-09-11T09:02:06;19.70;99.90
23717;DHT22;22094;52.130;5.598;2022-09-11T09:10:14;20.00;99.90
23717;DHT22;22094;52.130;5.598;2022-09-11T09:15:39;19.70;99.90
23717;DHT22;22094;52.130;5.598;2022-09-11T09:18:26;20.30;99.90
23717;DHT22;22094;52.130;5.598;2022-09-11T09:21:01;17.90;99.90
23717;DHT22;22094;52.130;5.598;2022-09-11T09:23:32;19.10;99.90
23717;DHT22;22094;52.130;5.598;2022-09-11T09:28:38;19.20;99.90
23717;DHT22;22094;52.130;5.598;2022-09-11T09:36:32;19.10;99.90
23717;DHT22;22094;52.130;5.598;2022-09-11T09:44:14;19.20;99.90
23717;DHT22;22094;52.130;5.598;2022-09-11T09:46:46;19.30;99.90
23717;DHT22;22094;52.130;5.598;2022-09-11T09:49:17;19.40;99.90
23717;DHT22;22094;52.130;5.598;2022-09-11T09:54:14;19.60;99.90
23717;DHT22;22094;52.130;5.598;2022-09-11T09:56:42;19.90;99.90
23717;DHT22;22094;52.130;5.598;2022-09-11T09:59:21;20.20;99.90
23717;DHT22;22094;52.130;5.598;2022-09-11T10:09:24;21.70;99.90
23717;DHT22;22094;52.130;5.598;2022-09-11T10:12:00;22.30;99.90
23717;DHT22;22094;52.130;5.598;2022-09-11T10:14:28;22.40;99.90
23717;DHT22;22094;52.130;5.598;2022-09-11T10:19:40;23.20;99.90
23717;DHT22;22094;52.130;5.598;2022-09-11T10:22:31;23.20;99.90
23717;DHT22;22094;52.130;5.598;2022-09-11T10:25:02;22.70;99.90
23717;DHT22;22094;52.130;5.598;2022-09-11T10:27:31;23.20;99.90
23717;DHT22;22094;52.130;5.598;2022-09-11T10:37:22;24.50;99.90
23717;DHT22;22094;52.130;5.598;2022-09-11T10:42:20;24.60;99.90
23717;DHT22;22094;52.130;5.598;2022-09-11T10:47:27;24.40;99.90
23717;DHT22;22094;52.130;5.598;2022-09-11T10:53:11;23.50;99.90
23717;DHT22;22094;52.130;5.598;2022-09-11T10:55:42;24.30;99.90
23717;DHT22;22094;52.130;5.598;2022-09-11T10:58:13;24.30;99.90
23717;DHT22;22094;52.130;5.598;2022-09-11T11:03:16;24.50;99.90
23717;DHT22;22094;52.130;5.598;2022-09-11T11:22:54;23.70;99.90
23717;DHT22;22094;52.130;5.598;2022-09-11T11:36:15;25.80;99.90
23717;DHT22;22094;52.130;5.598;2022-09-11T11:43:44;23.90;99.90
23717;DHT22;22094;52.130;5.598;2022-09-11T11:49:01;25.20;99.90
23717;DHT22;22094;52.130;5.598;2022-09-11T11:57:13;23.70;99.90
23717;DHT22;22094;52.130;5.598;2022-09-11T12:04:54;23.50;99.90
23717;DHT22;22094;52.130;5.598;2022-09-11T12:38:03;22.10;99.90
23717;DHT22;22094;52.130;5.598;2022-09-11T12:46:12;22.40;99.90
23717;DHT22;22094;52.130;5.598;2022-09-11T12:51:25;22.10;99.90
23717;DHT22;22094;52.130;5.598;2022-09-11T12:53:54;22.00;99.90
23717;DHT22;22094;52.130;5.598;2022-09-11T12:56:25;21.90;99.90
23717;DHT22;22094;52.130;5.598;2022-09-11T12:59:03;21.70;99.90
23717;DHT22;22094;52.130;5.598;2022-09-11T13:01:36;22.20;99.90
23717;DHT22;22094;52.130;5.598;2022-09-11T13:11:45;22.50;99.90
23717;DHT22;22094;52.130;5.598;2022-09-11T13:16:58;22.60;99.90
23717;DHT22;22094;52.130;5.598;2022-09-11T13:24:29;21.10;99.90
23717;DHT22;22094;52.130;5.598;2022-09-11T13:49:36;24.80;99.90
23717;DHT22;22094;52.130;5.598;2022-09-11T13:54:47;25.70;99.90
23717;DHT22;22094;52.130;5.598;2022-09-11T14:05:24;26.50;99.90
23717;DHT22;22094;52.130;5.598;2022-09-11T14:10:37;27.00;99.90
23717;DHT22;22094;52.130;5.598;2022-09-11T14:16:33;26.40;99.90
23717;DHT22;22094;52.130;5.598;2022-09-11T14:19:11;28.30;99.90
23717;DHT22;22094;52.130;5.598;2022-09-11T14:21:40;26.70;99.90
23717;DHT22;22094;52.130;5.598;2022-09-11T14:24:31;27.70;99.90
23717;DHT22;22094;52.130;5.598;2022-09-11T14:31:53;28.60;99.90
23717;DHT22;22094;52.130;5.598;2022-09-11T14:41:52;29.10;99.90
23717;DHT22;22094;52.130;5.598;2022-09-11T14:54:13;29.70;99.90
23717;DHT22;22094;52.130;5.598;2022-09-11T15:33:24;27.80;99.90
23717;DHT22;22094;52.130;5.598;2022-09-11T15:45:41;30.90;99.90
23717;DHT22;22094;52.130;5.598;2022-09-11T16:02:50;29.30;99.90
23717;DHT22;22094;52.130;5.598;2022-09-11T16:19:58;29.60;99.90
23717;DHT22;22094;52.130;5.598;2022-09-11T16:22:25;29.20;99.90
23717;DHT22;22094;52.130;5.598;2022-09-11T16:24:51;30.30;99.90
23717;DHT22;22094;52.130;5.598;2022-09-11T16:44:20;25.60;99.90
23717;DHT22;22094;52.130;5.598;2022-09-11T16:46:47;24.90;99.90
23717;DHT22;22094;52.130;5.598;2022-09-11T16:49:14;24.20;99.90
23717;DHT22;22094;52.130;5.598;2022-09-11T16:51:41;22.90;99.90
23717;DHT22;22094;52.130;5.598;2022-09-11T16:54:07;22.10;99.90
23717;DHT22;22094;52.130;5.598;2022-09-11T16:56:32;22.30;99.90
23717;DHT22;22094;52.130;5.598;2022-09-11T16:58:58;22.70;99.90
23717;DHT22;22094;52.130;5.598;2022-09-11T17:01:25;22.60;99.90
23717;DHT22;22094;52.130;5.598;2022-09-11T17:03:53;22.40;99.90
23717;DHT22;22094;52.130;5.598;2022-09-11T17:06:20;22.30;99.90
23717;DHT22;22094;52.130;5.598;2022-09-11T17:08:49;22.10;99.90
23717;DHT22;22094;52.130;5.598;2022-09-11T17:11:16;22.10;99.90
23717;DHT22;22094;52.130;5.598;2022-09-11T17:13:43;21.90;99.90
23717;DHT22;22094;52.130;5.598;2022-09-11T17:16:17;21.60;99.90
23717;DHT22;22094;52.130;5.598;2022-09-11T17:18:51;21.60;99.90
23717;DHT22;22094;52.130;5.598;2022-09-11T17:21:19;21.40;99.90
23717;DHT22;22094;52.130;5.598;2022-09-11T17:26:14;21.30;99.90
23717;DHT22;22094;52.130;5.598;2022-09-11T17:28:42;21.10;99.90
23717;DHT22;22094;52.130;5.598;2022-09-11T17:31:09;21.00;99.90
23717;DHT22;22094;52.130;5.598;2022-09-11T17:33:36;20.90;99.90
23717;DHT22;22094;52.130;5.598;2022-09-11T17:36:03;20.90;99.90
23717;DHT22;22094;52.130;5.598;2022-09-11T17:38:29;20.70;99.90
23717;DHT22;22094;52.130;5.598;2022-09-11T17:41:00;20.60;99.90
23717;DHT22;22094;52.130;5.598;2022-09-11T17:43:26;20.50;99.90
23717;DHT22;22094;52.130;5.598;2022-09-11T17:45:59;20.50;99.90
23717;DHT22;22094;52.130;5.598;2022-09-11T17:48:25;20.40;99.90
23717;DHT22;22094;52.130;5.598;2022-09-11T17:50:59;20.20;99.90
23717;DHT22;22094;52.130;5.598;2022-09-11T17:53:24;20.10;99.90
23717;DHT22;22094;52.130;5.598;2022-09-11T17:55:50;19.90;99.90
23717;DHT22;22094;52.130;5.598;2022-09-11T17:58:15;19.80;99.90
23717;DHT22;22094;52.130;5.598;2022-09-11T18:00:41;19.60;99.90
23717;DHT22;22094;52.130;5.598;2022-09-11T18:03:06;19.50;99.90
23717;DHT22;22094;52.130;5.598;2022-09-11T18:05:32;19.40;99.90
23717;DHT22;22094;52.130;5.598;2022-09-11T18:07:59;19.30;99.90
23717;DHT22;22094;52.130;5.598;2022-09-11T18:10:26;19.20;99.90
23717;DHT22;22094;52.130;5.598;2022-09-11T18:12:52;19.10;99.90
23717;DHT22;22094;52.130;5.598;2022-09-11T18:15:17;18.90;99.90
23717;DHT22;22094;52.130;5.598;2022-09-11T18:17:43;19.20;99.90
23717;DHT22;22094;52.130;5.598;2022-09-11T18:20:12;18.60;99.90
23717;DHT22;22094;52.130;5.598;2022-09-11T18:22:39;18.60;99.90
23717;DHT22;22094;52.130;5.598;2022-09-11T18:25:05;18.70;99.90
23717;DHT22;22094;52.130;5.598;2022-09-11T18:27:30;18.40;99.90
23717;DHT22;22094;52.130;5.598;2022-09-11T18:29:56;18.30;99.90
23717;DHT22;22094;52.130;5.598;2022-09-11T18:32:21;18.20;99.90
23717;DHT22;22094;52.130;5.598;2022-09-11T18:34:47;18.10;99.90
23717;DHT22;22094;52.130;5.598;2022-09-11T18:37:12;18.00;99.90
23717;DHT22;22094;52.130;5.598;2022-09-11T18:39:41;17.90;99.90
23717;DHT22;22094;52.130;5.598;2022-09-11T18:42:07;17.80;99.90
23717;DHT22;22094;52.130;5.598;2022-09-11T18:44:32;17.80;99.90
23717;DHT22;22094;52.130;5.598;2022-09-11T18:46:58;17.70;99.90
23717;DHT22;22094;52.130;5.598;2022-09-11T18:49:23;17.60;99.90
23717;DHT22;22094;52.130;5.598;2022-09-11T18:51:50;17.60;99.90
23717;DHT22;22094;52.130;5.598;2022-09-11T18:54:18;17.50;99.90
23717;DHT22;22094;52.130;5.598;2022-09-11T18:56:46;17.40;99.90
23717;DHT22;22094;52.130;5.598;2022-09-11T18:59:13;17.30;99.90
23717;DHT22;22094;52.130;5.598;2022-09-11T19:01:38;17.30;99.90
23717;DHT22;22094;52.130;5.598;2022-09-11T19:04:07;17.20;99.90
23717;DHT22;22094;52.130;5.598;2022-09-11T19:06:34;17.10;99.90
23717;DHT22;22094;52.130;5.598;2022-09-11T19:09:00;17.10;99.90
23717;DHT22;22094;52.130;5.598;2022-09-11T19:11:27;17.00;99.90
23717;DHT22;22094;52.130;5.598;2022-09-11T19:13:54;17.00;99.90
23717;DHT22;22094;52.130;5.598;2022-09-11T19:16:26;16.90;99.90
23717;DHT22;22094;52.130;5.598;2022-09-11T19:18:51;16.80;99.90
23717;DHT22;22094;52.130;5.598;2022-09-11T19:21:19;16.80;99.90
23717;DHT22;22094;52.130;5.598;2022-09-11T19:23:57;16.70;99.90
23717;DHT22;22094;52.130;5.598;2022-09-11T19:26:43;16.60;99.90
23717;DHT22;22094;52.130;5.598;2022-09-11T19:29:10;16.50;99.90
23717;DHT22;22094;52.130;5.598;2022-09-11T19:31:40;16.50;99.90
23717;DHT22;22094;52.130;5.598;2022-09-11T19:34:07;16.50;99.90
23717;DHT22;22094;52.130;5.598;2022-09-11T19:36:35;16.40;99.90
23717;DHT22;22094;52.130;5.598;2022-09-11T19:39:02;16.40;99.90
23717;DHT22;22094;52.130;5.598;2022-09-11T19:41:33;16.40;99.90
23717;DHT22;22094;52.130;5.598;2022-09-11T19:44:04;16.30;99.90
23717;DHT22;22094;52.130;5.598;2022-09-11T19:46:31;16.30;99.90
23717;DHT22;22094;52.130;5.598;2022-09-11T19:48:59;16.30;99.90
23717;DHT22;22094;52.130;5.598;2022-09-11T19:51:38;16.20;99.90
23717;DHT22;22094;52.130;5.598;2022-09-11T19:54:05;16.20;99.90
23717;DHT22;22094;52.130;5.598;2022-09-11T19:56:34;16.20;99.90
23717;DHT22;22094;52.130;5.598;2022-09-11T19:59:00;16.10;99.90
23717;DHT22;22094;52.130;5.598;2022-09-11T20:01:27;16.20;99.90
23717;DHT22;22094;52.130;5.598;2022-09-11T20:03:54;16.10;99.90
23717;DHT22;22094;52.130;5.598;2022-09-11T20:06:22;16.00;99.90
23717;DHT22;22094;52.130;5.598;2022-09-11T20:08:48;16.00;99.90
23717;DHT22;22094;52.130;5.598;2022-09-11T20:11:17;15.90;99.90
23717;DHT22;22094;52.130;5.598;2022-09-11T20:13:43;15.90;99.90
23717;DHT22;22094;52.130;5.598;2022-09-11T20:16:11;15.80;99.90
23717;DHT22;22094;52.130;5.598;2022-09-11T20:18:39;15.80;99.90
23717;DHT22;22094;52.130;5.598;2022-09-11T20:21:07;15.80;99.90
23717;DHT22;22094;52.130;5.598;2022-09-11T20:23:33;15.80;99.90
23717;DHT22;22094;52.130;5.598;2022-09-11T20:26:12;15.80;99.90
23717;DHT22;22094;52.130;5.598;2022-09-11T20:28:38;15.80;99.90
23717;DHT22;22094;52.130;5.598;2022-09-11T20:31:18;15.80;99.90
23717;DHT22;22094;52.130;5.598;2022-09-11T20:33:44;15.70;99.90
23717;DHT22;22094;52.130;5.598;2022-09-11T20:36:11;15.60;99.90
23717;DHT22;22094;52.130;5.598;2022-09-11T20:38:36;15.60;99.90
23717;DHT22;22094;52.130;5.598;2022-09-11T20:41:10;15.50;99.90
23717;DHT22;22094;52.130;5.598;2022-09-11T20:43:36;15.40;99.90
23717;DHT22;22094;52.130;5.598;2022-09-11T20:46:02;15.40;99.90
23717;DHT22;22094;52.130;5.598;2022-09-11T20:48:28;15.40;99.90
23717;DHT22;22094;52.130;5.598;2022-09-11T20:50:54;15.30;99.90
23717;DHT22;22094;52.130;5.598;2022-09-11T20:53:24;15.30;99.90
23717;DHT22;22094;52.130;5.598;2022-09-11T20:55:50;15.20;99.90
23717;DHT22;22094;52.130;5.598;2022-09-11T20:58:16;15.20;99.90
23717;DHT22;22094;52.130;5.598;2022-09-11T21:00:45;15.20;99.90
23717;DHT22;22094;52.130;5.598;2022-09-11T21:03:11;15.20;99.90
23717;DHT22;22094;52.130;5.598;2022-09-11T21:05:37;15.10;99.90
23717;DHT22;22094;52.130;5.598;2022-09-11T21:08:03;15.10;99.90
23717;DHT22;22094;52.130;5.598;2022-09-11T21:10:29;15.00;99.90
23717;DHT22;22094;52.130;5.598;2022-09-11T21:12:55;15.00;99.90
23717;DHT22;22094;52.130;5.598;2022-09-11T21:15:20;15.00;99.90
23717;DHT22;22094;52.130;5.598;2022-09-11T21:17:49;14.90;99.90
23717;DHT22;22094;52.130;5.598;2022-09-11T21:20:14;14.90;99.90
23717;DHT22;22094;52.130;5.598;2022-09-11T21:22:40;14.80;99.90
23717;DHT22;22094;52.130;5.598;2022-09-11T21:25:06;14.70;99.90
23717;DHT22;22094;52.130;5.598;2022-09-11T21:27:31;14.70;99.90
23717;DHT22;22094;52.130;5.598;2022-09-11T21:29:57;14.70;99.90
23717;DHT22;22094;52.130;5.598;2022-09-11T21:32:23;14.80;99.90
23717;DHT22;22094;52.130;5.598;2022-09-11T21:34:48;14.60;99.90
23717;DHT22;22094;52.130;5.598;2022-09-11T21:37:14;14.70;99.90
23717;DHT22;22094;52.130;5.598;2022-09-11T21:39:40;14.60;99.90
23717;DHT22;22094;52.130;5.598;2022-09-11T21:42:05;14.60;99.90
23717;DHT22;22094;52.130;5.598;2022-09-11T21:44:31;14.50;99.90
23717;DHT22;22094;52.130;5.598;2022-09-11T21:46:56;14.50;99.90
23717;DHT22;22094;52.130;5.598;2022-09-11T21:49:22;14.40;99.90
23717;DHT22;22094;52.130;5.598;2022-09-11T21:51:47;14.40;99.90
23717;DHT22;22094;52.130;5.598;2022-09-11T21:54:13;14.40;99.90
23717;DHT22;22094;52.130;5.598;2022-09-11T21:56:38;14.40;99.90
23717;DHT22;22094;52.130;5.598;2022-09-11T21:59:05;14.30;99.90
23717;DHT22;22094;52.130;5.598;2022-09-11T22:01:31;14.30;99.90
23717;DHT22;22094;52.130;5.598;2022-09-11T22:03:57;14.20;99.90
23717;DHT22;22094;52.130;5.598;2022-09-11T22:06:24;14.20;99.90
23717;DHT22;22094;52.130;5.598;2022-09-11T22:08:50;14.10;99.90
23717;DHT22;22094;52.130;5.598;2022-09-11T22:11:16;14.10;99.90
23717;DHT22;22094;52.130;5.598;2022-09-11T22:13:42;14.10;99.90
23717;DHT22;22094;52.130;5.598;2022-09-11T22:16:10;14.00;99.90
23717;DHT22;22094;52.130;5.598;2022-09-11T22:18:37;14.00;99.90
23717;DHT22;22094;52.130;5.598;2022-09-11T22:21:03;14.00;99.90
23717;DHT22;22094;52.130;5.598;2022-09-11T22:23:29;13.90;99.90
23717;DHT22;22094;52.130;5.598;2022-09-11T22:28:25;13.90;99.90
23717;DHT22;22094;52.130;5.598;2022-09-11T22:30:51;13.90;99.90